createdAt,value
2022-11-24T00:02:13.401Z,6.47
2022-11-24T00:04:40.892Z,6.38
2022-11-24T00:07:09.577Z,6.35
2022-11-24T00:09:36.784Z,6.33
2022-11-24T00:12:04.406Z,6.36
2022-11-24T00:14:31.980Z,6.33
2022-11-24T00:16:59.514Z,6.32
2022-11-24T00:19:26.797Z,6.32
2022-11-24T00:21:53.992Z,6.30
2022-11-24T00:24:22.616Z,6.30
2022-11-24T00:26:49.858Z,6.30
2022-11-24T00:29:17.083Z,6.23
2022-11-24T00:31:44.255Z,6.21
2022-11-24T00:34:13.788Z,6.25
2022-11-24T00:36:41.856Z,6.19
2022-11-24T00:39:12.183Z,6.26
2022-11-24T00:41:41.376Z,6.22
2022-11-24T00:44:09.250Z,6.27
2022-11-24T00:46:36.565Z,6.24
2022-11-24T00:49:04.363Z,6.21
2022-11-24T00:51:31.844Z,6.17
2022-11-24T00:54:00.746Z,6.09
2022-11-24T00:56:29.486Z,6.04
2022-11-24T00:58:58.119Z,6.02
2022-11-24T01:01:27.291Z,5.98
2022-11-24T01:03:54.848Z,5.95
2022-11-24T01:06:24.144Z,5.96
2022-11-24T01:08:51.709Z,5.98
2022-11-24T01:11:21.394Z,5.97
2022-11-24T01:13:49.909Z,5.96
2022-11-24T01:16:21.583Z,5.98
2022-11-24T01:18:49.481Z,5.99
2022-11-24T01:21:17.827Z,6.03
2022-11-24T01:23:45.026Z,6.10
2022-11-24T01:26:14.788Z,6.13
2022-11-24T01:28:47.076Z,6.10
2022-11-24T01:31:15.796Z,6.15
2022-11-24T01:33:44.438Z,6.17
2022-11-24T01:36:12.100Z,6.16
2022-11-24T01:38:39.438Z,6.15
2022-11-24T01:41:09.872Z,6.14
2022-11-24T01:43:37.507Z,6.16
2022-11-24T01:46:12.672Z,6.22
2022-11-24T01:48:43.457Z,6.28
2022-11-24T01:51:16.386Z,6.29
2022-11-24T01:53:48.942Z,6.27
2022-11-24T01:56:16.299Z,6.23
2022-11-24T01:58:45.753Z,6.17
2022-11-24T02:01:13.638Z,6.18
2022-11-24T02:03:43.802Z,6.17
2022-11-24T02:06:16.761Z,6.19
2022-11-24T02:08:56.707Z,6.20
2022-11-24T02:11:27.956Z,6.25
2022-11-24T02:13:57.070Z,6.33
2022-11-24T02:16:24.315Z,6.35
2022-11-24T02:18:51.866Z,6.36
2022-11-24T02:21:20.567Z,6.40
2022-11-24T02:23:54.839Z,6.36
2022-11-24T02:26:38.857Z,6.40
2022-11-24T02:29:06.224Z,6.41
2022-11-24T02:31:33.877Z,6.44
2022-11-24T02:34:01.309Z,6.46
2022-11-24T02:36:28.604Z,6.49
2022-11-24T02:38:55.818Z,6.40
2022-11-24T02:41:26.874Z,6.32
2022-11-24T02:43:58.262Z,6.32
2022-11-24T02:46:25.767Z,6.36
2022-11-24T02:48:53.261Z,6.36
2022-11-24T02:51:20.458Z,6.38
2022-11-24T02:53:47.691Z,6.33
2022-11-24T02:56:14.906Z,6.36
2022-11-24T02:58:42.171Z,6.36
2022-11-24T03:01:10.749Z,6.30
2022-11-24T03:03:38.382Z,6.29
2022-11-24T03:06:05.893Z,6.21
2022-11-24T03:08:33.233Z,6.12
2022-11-24T03:11:01.647Z,6.07
2022-11-24T03:13:29.012Z,6.13
2022-11-24T03:15:56.244Z,6.12
2022-11-24T03:18:24.838Z,6.04
2022-11-24T03:20:52.034Z,6.03
2022-11-24T03:23:19.213Z,6.04
2022-11-24T03:25:46.381Z,5.94
2022-11-24T03:28:13.624Z,5.89
2022-11-24T03:30:40.923Z,5.91
2022-11-24T03:33:08.243Z,5.99
2022-11-24T03:35:36.884Z,6.07
2022-11-24T03:38:04.053Z,6.09
2022-11-24T03:40:31.257Z,6.18
2022-11-24T03:42:58.509Z,6.20
2022-11-24T03:48:13.248Z,6.26
2022-11-24T03:50:41.866Z,6.24
2022-11-24T03:53:09.426Z,6.15
2022-11-24T03:55:36.630Z,6.14
2022-11-24T03:58:03.828Z,6.15
2022-11-24T04:00:31.037Z,6.13
2022-11-24T04:02:58.341Z,6.06
2022-11-24T04:05:25.558Z,5.99
2022-11-24T04:07:56.805Z,6.09
2022-11-24T04:10:24.346Z,6.04
2022-11-24T04:12:51.601Z,6.05
2022-11-24T04:15:19.651Z,5.97
2022-11-24T04:17:49.178Z,6.00
2022-11-24T04:20:17.275Z,6.00
2022-11-24T04:22:44.573Z,6.06
2022-11-24T04:25:13.231Z,6.06
2022-11-24T04:27:40.426Z,6.07
2022-11-24T04:30:08.547Z,6.11
2022-11-24T04:32:35.732Z,6.17
2022-11-24T04:35:03.828Z,6.22
2022-11-24T04:37:31.124Z,6.21
2022-11-24T04:39:58.348Z,6.13
2022-11-24T04:42:26.907Z,6.19
2022-11-24T04:44:54.107Z,6.16
2022-11-24T04:47:23.948Z,6.09
2022-11-24T04:49:52.992Z,6.04
2022-11-24T04:52:22.374Z,6.07
2022-11-24T04:54:50.341Z,6.03
2022-11-24T04:57:18.984Z,6.03
2022-11-24T04:59:48.466Z,5.99
2022-11-24T05:02:15.627Z,5.97
2022-11-24T05:04:42.944Z,5.96
2022-11-24T05:07:16.445Z,6.02
2022-11-24T05:09:58.855Z,6.00
2022-11-24T05:12:27.644Z,5.97
2022-11-24T05:14:56.408Z,6.02
2022-11-24T05:17:23.629Z,6.12
2022-11-24T05:19:50.843Z,6.04
2022-11-24T05:22:18.056Z,6.13
2022-11-24T05:24:45.272Z,6.09
2022-11-24T05:27:12.596Z,6.10
2022-11-24T05:29:39.817Z,6.16
2022-11-24T05:32:08.432Z,6.16
2022-11-24T05:34:35.956Z,6.20
2022-11-24T05:37:03.425Z,6.15
2022-11-24T05:39:31.520Z,6.13
2022-11-24T05:41:59.171Z,6.21
2022-11-24T05:44:26.386Z,6.11
2022-11-24T05:46:53.617Z,6.11
2022-11-24T05:49:22.324Z,6.14
2022-11-24T05:51:49.624Z,6.14
2022-11-24T05:54:16.983Z,6.12
2022-11-24T05:56:44.230Z,6.04
2022-11-24T05:59:11.419Z,6.03
2022-11-24T06:01:38.746Z,5.99
2022-11-24T06:04:06.037Z,6.00
2022-11-24T06:06:34.625Z,6.02
2022-11-24T06:09:01.829Z,6.02
2022-11-24T06:11:29.050Z,5.97
2022-11-24T06:13:56.417Z,6.06
2022-11-24T06:16:24.167Z,6.03
2022-11-24T06:18:51.493Z,6.07
2022-11-24T06:21:18.785Z,6.04
2022-11-24T06:23:49.063Z,6.06
2022-11-24T06:26:16.278Z,6.05
2022-11-24T06:28:43.601Z,6.13
2022-11-24T06:31:11.282Z,6.04
2022-11-24T06:33:39.001Z,6.07
2022-11-24T06:36:09.700Z,6.07
2022-11-24T06:38:36.976Z,6.04
2022-11-24T06:41:08.007Z,5.99
2022-11-24T06:43:36.193Z,5.95
2022-11-24T06:46:04.213Z,6.01
2022-11-24T06:48:31.863Z,6.01
2022-11-24T06:50:59.940Z,6.02
2022-11-24T06:53:30.313Z,5.96
2022-11-24T06:55:58.716Z,6.01
2022-11-24T06:58:27.703Z,6.01
2022-11-24T07:00:55.001Z,6.01
2022-11-24T07:03:22.467Z,5.99
2022-11-24T07:05:49.775Z,5.97
2022-11-24T07:08:18.096Z,5.92
2022-11-24T07:10:45.536Z,5.99
2022-11-24T07:13:12.777Z,5.99
2022-11-24T07:15:41.458Z,6.02
2022-11-24T07:18:08.637Z,6.06
2022-11-24T07:20:36.028Z,6.01
2022-11-24T07:23:03.489Z,6.07
2022-11-24T07:25:30.682Z,6.06
2022-11-24T07:27:58.149Z,6.06
2022-11-24T07:30:25.890Z,6.12
2022-11-24T07:32:58.884Z,6.10
2022-11-24T07:35:26.352Z,6.15
2022-11-24T07:37:54.791Z,6.28
2022-11-24T07:40:22.249Z,6.38
2022-11-24T07:42:49.620Z,6.46
2022-11-24T07:45:16.939Z,6.50
2022-11-24T07:47:44.186Z,6.57
2022-11-24T07:50:13.209Z,6.60
2022-11-24T07:52:40.621Z,6.64
2022-11-24T07:55:08.943Z,6.65
2022-11-24T07:57:36.400Z,6.69
2022-11-24T08:00:05.325Z,6.81
2022-11-24T08:02:33.094Z,6.82
2022-11-24T08:05:00.315Z,6.83
2022-11-24T08:07:28.961Z,6.75
2022-11-24T08:09:56.238Z,6.70
2022-11-24T08:12:23.509Z,6.70
2022-11-24T08:14:51.222Z,6.68
2022-11-24T08:17:18.772Z,6.64
2022-11-24T08:19:46.367Z,6.67
2022-11-24T08:22:13.651Z,6.68
2022-11-24T08:24:42.521Z,6.80
2022-11-24T08:27:09.676Z,6.80
2022-11-24T08:29:36.933Z,6.83
2022-11-24T08:32:04.657Z,6.88
2022-11-24T08:34:32.107Z,6.93
2022-11-24T08:36:59.743Z,6.97
2022-11-24T08:39:26.929Z,7.06
2022-11-24T08:41:55.576Z,7.06
2022-11-24T08:44:23.078Z,7.12
2022-11-24T08:46:50.462Z,7.15
2022-11-24T08:49:17.845Z,7.16
2022-11-24T08:51:45.073Z,7.29
2022-11-24T08:54:12.321Z,7.31
2022-11-24T08:56:39.642Z,7.29
2022-11-24T08:59:08.284Z,7.28
2022-11-24T09:01:35.673Z,7.38
2022-11-24T09:04:03.208Z,7.50
2022-11-24T09:06:30.548Z,7.61
2022-11-24T09:08:58.695Z,7.93
2022-11-24T09:11:26.663Z,7.98
2022-11-24T09:13:54.696Z,7.95
2022-11-24T09:16:25.566Z,7.93
2022-11-24T09:18:56.630Z,8.14
2022-11-24T09:21:24.014Z,8.04
2022-11-24T09:23:52.700Z,8.25
2022-11-24T09:26:22.059Z,8.38
2022-11-24T09:28:50.104Z,8.56
2022-11-24T09:31:18.109Z,8.89
2022-11-24T09:33:47.116Z,8.98
2022-11-24T09:36:15.164Z,9.03
2022-11-24T09:38:42.418Z,9.07
2022-11-24T09:41:38.258Z,9.10
2022-11-24T09:44:11.323Z,9.10
2022-11-24T09:46:48.390Z,9.18
2022-11-24T09:49:29.590Z,9.17
2022-11-24T09:51:58.220Z,9.16
2022-11-24T09:54:29.761Z,9.18
2022-11-24T09:57:00.548Z,9.24
2022-11-24T09:59:28.454Z,9.36
2022-11-24T10:01:55.900Z,9.38
2022-11-24T10:04:29.217Z,9.50
2022-11-24T10:07:07.162Z,9.70
2022-11-24T10:09:52.217Z,9.89
2022-11-24T10:12:41.009Z,10.05
2022-11-24T10:15:30.814Z,10.06
2022-11-24T10:18:16.715Z,9.96
2022-11-24T10:20:58.510Z,9.92
2022-11-24T10:23:41.237Z,9.74
2022-11-24T10:26:18.067Z,9.62
2022-11-24T10:28:51.565Z,9.53
2022-11-24T10:31:24.891Z,9.47
2022-11-24T10:33:52.317Z,9.49
2022-11-24T10:36:28.178Z,9.48
2022-11-24T10:39:03.297Z,9.71
2022-11-24T10:41:42.703Z,10.17
2022-11-24T10:44:13.509Z,10.42
2022-11-24T10:46:41.182Z,10.93
2022-11-24T10:49:17.837Z,11.07
2022-11-24T10:51:58.858Z,11.53
2022-11-24T10:54:26.104Z,11.60
2022-11-24T10:56:54.765Z,11.74
2022-11-24T10:59:30.707Z,11.52
2022-11-24T11:01:58.837Z,11.79
2022-11-24T11:04:27.849Z,11.63
2022-11-24T11:07:17.784Z,11.31
2022-11-24T11:09:45.294Z,11.44
2022-11-24T11:12:42.897Z,11.90
2022-11-24T11:15:27.264Z,12.32
2022-11-24T11:17:58.194Z,12.97
2022-11-24T11:20:29.886Z,13.22
2022-11-24T11:23:01.493Z,11.74
2022-11-24T11:25:32.547Z,11.15
2022-11-24T11:28:21.685Z,12.84
2022-11-24T11:34:16.025Z,12.76
2022-11-24T11:36:45.067Z,12.02
2022-11-24T11:39:23.726Z,12.01
2022-11-24T11:41:56.676Z,12.24
2022-11-24T11:44:32.589Z,11.55
2022-11-24T11:47:09.133Z,11.84
2022-11-24T11:49:38.829Z,11.61
2022-11-24T11:52:27.795Z,11.17
2022-11-24T11:55:27.536Z,11.48
2022-11-24T11:58:07.258Z,11.94
2022-11-24T12:00:39.409Z,11.95
2022-11-24T12:03:42.616Z,11.51
2022-11-24T12:06:24.406Z,11.06
2022-11-24T12:09:19.862Z,10.96
2022-11-24T12:12:03.319Z,10.97
2022-11-24T12:14:44.042Z,10.84
2022-11-24T12:17:21.149Z,10.65
2022-11-24T12:20:03.189Z,10.74
2022-11-24T12:22:40.139Z,10.67
2022-11-24T12:25:22.728Z,10.58
2022-11-24T12:28:01.228Z,10.61
2022-11-24T12:30:37.917Z,10.54
2022-11-24T12:33:20.319Z,10.59
2022-11-24T12:35:52.583Z,10.48
2022-11-24T12:38:31.016Z,10.43
2022-11-24T12:41:40.518Z,10.49
2022-11-24T12:44:19.276Z,10.52
2022-11-24T12:46:56.978Z,10.48
2022-11-24T12:49:33.890Z,10.66
2022-11-24T12:52:05.551Z,10.80
2022-11-24T12:54:39.751Z,10.84
2022-11-24T12:57:13.158Z,11.00
2022-11-24T12:59:51.382Z,10.99
2022-11-24T13:02:30.763Z,10.79
2022-11-24T13:05:08.316Z,10.83
2022-11-24T13:07:43.651Z,10.73
2022-11-24T13:10:54.831Z,10.63
2022-11-24T13:13:26.057Z,10.56
2022-11-24T13:19:09.129Z,10.39
2022-11-24T13:21:59.445Z,10.35
2022-11-24T13:24:28.596Z,10.49
2022-11-24T13:27:25.442Z,10.44
2022-11-24T13:29:53.434Z,10.53
2022-11-24T13:32:59.379Z,10.46
2022-11-24T13:35:28.885Z,10.43
2022-11-24T13:37:56.161Z,10.67
2022-11-24T13:40:41.023Z,11.26
2022-11-24T13:43:20.753Z,12.44
2022-11-24T13:45:49.165Z,12.11
2022-11-24T13:48:49.493Z,12.14
2022-11-24T13:51:23.390Z,12.45
2022-11-24T13:53:52.703Z,12.73
2022-11-24T13:56:24.535Z,12.81
2022-11-24T13:58:55.253Z,13.33
2022-11-24T14:01:24.345Z,12.99
2022-11-24T14:06:54.189Z,12.26
2022-11-24T14:09:26.694Z,12.19
2022-11-24T14:11:59.884Z,12.45
2022-11-24T14:14:27.548Z,12.01
2022-11-24T14:17:12.518Z,12.07
2022-11-24T14:19:39.921Z,12.11
2022-11-24T14:22:15.739Z,12.10
2022-11-24T14:24:43.804Z,12.11
2022-11-24T14:27:15.213Z,11.55
2022-11-24T14:29:54.451Z,11.90
2022-11-24T14:32:21.855Z,11.96
2022-11-24T14:34:49.308Z,11.84
2022-11-24T14:37:18.421Z,11.61
2022-11-24T14:39:45.922Z,11.27
2022-11-24T14:42:18.328Z,11.24
2022-11-24T14:44:49.284Z,11.04
2022-11-24T14:47:30.468Z,11.15
2022-11-24T14:50:08.184Z,10.87
2022-11-24T14:52:44.651Z,10.54
2022-11-24T14:55:24.880Z,10.50
2022-11-24T14:57:52.298Z,10.18
2022-11-24T15:00:26.884Z,9.94
2022-11-24T15:02:56.059Z,9.77
2022-11-24T15:05:25.398Z,9.60
2022-11-24T15:08:02.449Z,9.42
2022-11-24T15:10:34.943Z,9.38
2022-11-24T15:13:05.203Z,9.23
2022-11-24T15:15:35.252Z,9.15
2022-11-24T15:18:04.493Z,9.05
2022-11-24T15:20:33.896Z,8.89
2022-11-24T15:23:25.146Z,8.86
2022-11-24T15:25:53.341Z,8.77
2022-11-24T15:28:20.810Z,8.70
2022-11-24T15:30:48.017Z,8.63
2022-11-24T15:33:17.226Z,8.51
2022-11-24T15:35:45.164Z,8.56
2022-11-24T15:38:12.740Z,8.55
2022-11-24T15:40:43.880Z,8.52
2022-11-24T15:43:28.378Z,8.54
2022-11-24T15:45:56.004Z,8.39
2022-11-24T15:48:23.455Z,8.49
2022-11-24T15:50:51.862Z,8.41
2022-11-24T15:53:21.318Z,8.41
2022-11-24T15:55:50.563Z,8.31
2022-11-24T15:58:18.378Z,8.25
2022-11-24T16:00:45.909Z,8.27
2022-11-24T16:03:44.944Z,8.18
2022-11-24T16:06:00.905Z,8.11
2022-11-24T16:08:28.117Z,8.03
2022-11-24T16:10:56.740Z,8.00
2022-11-24T16:13:24.124Z,8.08
2022-11-24T16:15:51.441Z,8.03
2022-11-24T16:18:18.719Z,7.98
2022-11-24T16:20:45.952Z,7.99
2022-11-24T16:23:13.299Z,8.00
2022-11-24T16:25:40.538Z,8.01
2022-11-24T16:28:09.139Z,7.90
2022-11-24T16:30:36.393Z,7.87
2022-11-24T16:33:03.942Z,7.83
2022-11-24T16:35:31.190Z,7.83
2022-11-24T16:37:58.484Z,7.81
2022-11-24T16:40:25.991Z,7.71
2022-11-24T16:42:53.211Z,7.77
2022-11-24T16:45:24.702Z,7.61
2022-11-24T16:47:51.984Z,7.61
2022-11-24T16:50:19.187Z,7.73
2022-11-24T16:52:46.441Z,7.81
2022-11-24T16:55:13.634Z,7.85
2022-11-24T16:57:40.922Z,7.86
2022-11-24T17:00:09.581Z,7.82
2022-11-24T17:02:38.328Z,7.70
2022-11-24T17:05:06.406Z,7.68
2022-11-24T17:07:33.723Z,7.69
2022-11-24T17:10:00.926Z,7.65
2022-11-24T17:12:28.219Z,7.63
2022-11-24T17:15:24.492Z,7.60
2022-11-24T17:18:08.376Z,7.53
2022-11-24T17:20:31.381Z,7.50
2022-11-24T17:22:58.668Z,7.48
2022-11-24T17:25:25.860Z,7.43
2022-11-24T17:27:53.469Z,7.34
2022-11-24T17:30:20.785Z,7.25
2022-11-24T17:32:53.648Z,7.25
2022-11-24T17:35:23.945Z,7.27
2022-11-24T17:37:51.175Z,7.23
2022-11-24T17:40:28.352Z,7.22
2022-11-24T17:42:58.019Z,7.22
2022-11-24T17:45:25.504Z,7.16
2022-11-24T17:47:54.862Z,7.17
2022-11-24T17:50:25.699Z,7.15
2022-11-24T17:52:53.954Z,7.24
2022-11-24T17:55:21.505Z,7.45
2022-11-24T17:57:48.673Z,7.15
2022-11-24T18:00:16.740Z,7.15
2022-11-24T18:02:43.929Z,7.12
2022-11-24T18:05:12.470Z,6.99
2022-11-24T18:07:39.707Z,6.95
2022-11-24T18:10:07.736Z,6.98
2022-11-24T18:12:34.981Z,6.95
2022-11-24T18:15:02.276Z,6.96
2022-11-24T18:17:29.605Z,6.99
2022-11-24T18:19:56.790Z,6.93
2022-11-24T18:22:50.092Z,6.90
2022-11-24T18:25:12.838Z,6.90
2022-11-24T18:27:40.036Z,6.98
2022-11-24T18:30:08.317Z,6.93
2022-11-24T18:32:35.596Z,7.03
2022-11-24T18:35:02.866Z,6.95
2022-11-24T18:37:31.660Z,6.85
2022-11-24T18:39:59.024Z,6.84
2022-11-24T18:42:26.788Z,6.85
2022-11-24T18:44:54.396Z,6.83
2022-11-24T18:47:21.985Z,6.80
2022-11-24T18:49:49.201Z,6.91
2022-11-24T18:52:16.458Z,6.85
2022-11-24T18:54:45.009Z,6.88
2022-11-24T18:57:12.204Z,6.79
2022-11-24T18:59:39.489Z,6.89
2022-11-24T19:02:06.723Z,6.83
2022-11-24T19:04:34.112Z,6.87
2022-11-24T19:07:01.659Z,6.84
2022-11-24T19:09:28.892Z,6.87
2022-11-24T19:11:57.447Z,6.86
2022-11-24T19:14:24.686Z,6.95
2022-11-24T19:16:52.027Z,7.03
2022-11-24T19:19:19.291Z,6.97
2022-11-24T19:21:46.507Z,6.95
2022-11-24T19:24:13.709Z,6.87
2022-11-24T19:26:41.066Z,6.82
2022-11-24T19:29:09.987Z,6.76
2022-11-24T19:31:38.039Z,6.76
2022-11-24T19:34:05.703Z,6.75
2022-11-24T19:36:32.904Z,6.67
2022-11-24T19:39:00.174Z,6.60
2022-11-24T19:41:29.824Z,6.54
2022-11-24T19:43:57.627Z,6.53
2022-11-24T19:46:28.055Z,6.62
2022-11-24T19:48:56.549Z,6.52
2022-11-24T19:51:25.282Z,6.51
2022-11-24T19:53:53.330Z,6.47
2022-11-24T19:56:22.389Z,6.41
2022-11-24T19:58:50.820Z,6.34
2022-11-24T20:01:20.397Z,6.34
2022-11-24T20:03:55.071Z,6.27
2022-11-24T20:06:22.329Z,6.21
2022-11-24T20:08:49.527Z,6.18
2022-11-24T20:11:18.413Z,6.18
2022-11-24T20:13:47.304Z,6.10
2022-11-24T20:16:16.087Z,6.10
2022-11-24T20:18:45.467Z,6.05
2022-11-24T20:21:15.936Z,6.06
2022-11-24T20:23:44.614Z,6.07
2022-11-24T20:26:13.741Z,6.01
2022-11-24T20:28:41.640Z,6.00
2022-11-24T20:31:11.604Z,5.98
2022-11-24T20:33:39.017Z,5.96
2022-11-24T20:36:07.970Z,5.99
2022-11-24T20:38:37.601Z,5.99
2022-11-24T20:41:09.189Z,5.97
2022-11-24T20:43:37.361Z,5.97
2022-11-24T20:46:07.127Z,5.95
2022-11-24T20:48:35.488Z,5.96
2022-11-24T20:51:03.708Z,5.96
2022-11-24T20:53:30.988Z,5.92
2022-11-24T20:56:06.116Z,5.87
2022-11-24T20:58:34.817Z,5.94
2022-11-24T21:01:06.360Z,5.92
2022-11-24T21:03:38.356Z,5.90
2022-11-24T21:06:09.090Z,5.90
2022-11-24T21:08:37.473Z,5.88
2022-11-24T21:11:07.069Z,5.91
2022-11-24T21:13:35.721Z,5.87
2022-11-24T21:16:11.848Z,5.94
2022-11-24T21:18:39.252Z,5.89
2022-11-24T21:21:07.076Z,5.87
2022-11-24T21:23:34.298Z,5.89
2022-11-24T21:26:05.554Z,5.85
2022-11-24T21:28:34.935Z,5.81
2022-11-24T21:31:06.054Z,5.76
2022-11-24T21:33:33.597Z,5.75
2022-11-24T21:36:01.637Z,5.73
2022-11-24T21:38:29.376Z,5.76
2022-11-24T21:40:59.527Z,5.76
2022-11-24T21:43:27.748Z,5.73
2022-11-24T21:46:00.450Z,5.69
2022-11-24T21:48:27.912Z,5.64
2022-11-24T21:50:57.527Z,5.65
2022-11-24T21:53:24.661Z,5.62
2022-11-24T21:55:55.494Z,5.62
2022-11-24T21:58:23.118Z,5.62
2022-11-24T22:00:50.827Z,5.58
2022-11-24T22:03:20.264Z,5.57
2022-11-24T22:05:58.030Z,5.61
2022-11-24T22:08:27.423Z,5.60
2022-11-24T22:11:00.565Z,5.56
2022-11-24T22:13:27.984Z,5.64
2022-11-24T22:16:06.713Z,5.61
2022-11-24T22:18:37.487Z,5.59
2022-11-24T22:21:06.517Z,5.67
2022-11-24T22:23:34.941Z,5.65
2022-11-24T22:26:02.989Z,5.64
2022-11-24T22:28:31.197Z,5.61
2022-11-24T22:30:58.404Z,5.62
2022-11-24T22:33:25.577Z,5.53
2022-11-24T22:35:57.469Z,5.53
2022-11-24T22:38:24.848Z,5.52
2022-11-24T22:40:52.179Z,5.51
2022-11-24T22:43:22.927Z,5.44
2022-11-24T22:45:50.558Z,5.44
2022-11-24T22:48:17.855Z,5.44
2022-11-24T22:50:45.088Z,5.45
2022-11-24T22:53:13.586Z,5.48
2022-11-24T22:55:40.847Z,5.38
2022-11-24T22:58:08.095Z,5.38
2022-11-24T23:00:35.300Z,5.38
2022-11-24T23:03:02.647Z,5.37
2022-11-24T23:05:32.653Z,5.34
2022-11-24T23:07:59.892Z,5.31
2022-11-24T23:10:28.496Z,5.31
2022-11-24T23:12:55.701Z,5.27
2022-11-24T23:15:22.844Z,5.28
2022-11-24T23:17:50.040Z,5.23
2022-11-24T23:20:17.386Z,5.22
2022-11-24T23:22:44.839Z,5.21
2022-11-24T23:25:12.049Z,5.23
2022-11-24T23:27:40.609Z,5.20
2022-11-24T23:30:08.673Z,5.17
2022-11-24T23:32:35.943Z,5.20
2022-11-24T23:35:03.347Z,5.17
2022-11-24T23:37:52.117Z,5.14
2022-11-24T23:40:17.946Z,5.18
2022-11-24T23:42:47.987Z,5.22
2022-11-24T23:45:15.365Z,5.24
2022-11-24T23:47:42.560Z,5.16
2022-11-24T23:50:10.268Z,5.20
2022-11-24T23:52:37.466Z,5.15
2022-11-24T23:55:05.660Z,5.13
2022-11-24T23:57:32.850Z,5.09
